Time,TemperatureF,DewpointF,PressureIn,WindDirection,WindDirectionDegrees,WindSpeedMPH,WindSpeedGustMPH,Humidity,HourlyPrecipIn,Conditions,Clouds,dailyrainin,SoftwareType,DateUTC
2013-05-12 00:03:00,-999.0,-99.9,29.67,SW,227,0.0,1.0,98,0.00,,,0.10,,2013-05-12 04:03:00,
2013-05-12 00:12:00,61.0,60.0,29.67,SW,227,0.0,1.0,98,0.00,,,0.10,,2013-05-12 04:12:00,
2013-05-12 00:22:00,61.0,60.0,29.66,SW,227,0.0,0.0,97,0.00,,,0.10,,2013-05-12 04:22:00,
2013-05-12 00:33:00,61.0,60.0,29.66,SW,227,0.0,0.0,97,0.00,,,0.10,,2013-05-12 04:33:00,
2013-05-12 00:43:00,61.0,60.0,29.66,SW,227,0.0,0.0,97,0.00,,,0.10,,2013-05-12 04:43:00,
2013-05-12 00:52:00,60.0,59.0,29.65,SW,227,0.0,0.0,98,0.00,,,0.10,,2013-05-12 04:52:00,
2013-05-12 01:02:00,60.0,59.0,29.65,SW,227,0.0,0.0,98,0.00,,,0.10,,2013-05-12 05:02:00,
2013-05-12 01:12:00,60.0,59.0,29.65,SW,227,0.0,0.0,98,0.00,,,0.10,,2013-05-12 05:12:00,
2013-05-12 01:22:00,60.0,59.0,29.64,SW,227,0.0,0.0,98,0.00,,,0.10,,2013-05-12 05:22:00,
2013-05-12 01:32:00,60.0,59.0,29.64,SW,227,0.0,0.0,98,0.00,,,0.10,,2013-05-12 05:32:00,
2013-05-12 01:42:00,60.0,59.0,29.64,SW,227,0.0,0.0,98,0.00,,,0.10,,2013-05-12 05:42:00,
2013-05-12 01:52:00,60.0,59.0,29.62,SW,227,0.0,0.0,98,0.00,,,0.10,,2013-05-12 05:52:00,
2013-05-12 02:02:00,60.0,59.0,29.62,SW,227,0.0,0.0,98,0.00,,,0.10,,2013-05-12 06:02:00,
2013-05-12 02:11:00,60.0,59.0,29.62,SW,227,0.0,0.0,98,0.00,,,0.10,,2013-05-12 06:11:00,
2013-05-12 02:21:00,60.0,59.0,29.62,SW,227,0.0,0.0,98,0.00,,,0.10,,2013-05-12 06:21:00,
2013-05-12 02:32:00,60.0,59.0,29.62,SW,227,0.0,0.0,98,0.00,,,0.10,,2013-05-12 06:32:00,
2013-05-12 02:42:00,60.0,59.0,29.62,SW,227,0.0,0.0,98,0.00,,,0.10,,2013-05-12 06:42:00,
2013-05-12 02:52:00,60.0,59.0,29.62,SW,227,0.0,0.0,98,0.00,,,0.10,,2013-05-12 06:52:00,
2013-05-12 03:01:00,60.0,59.0,29.62,SW,227,0.0,0.0,98,0.00,,,0.10,,2013-05-12 07:01:00,
2013-05-12 03:11:00,60.0,59.0,29.62,SW,227,0.0,0.0,98,0.00,,,0.10,,2013-05-12 07:11:00,
2013-05-12 03:22:00,59.0,58.0,29.61,SW,227,0.0,0.0,98,0.00,,,0.10,,2013-05-12 07:22:00,
2013-05-12 03:32:00,59.0,58.0,29.61,SW,227,0.0,0.0,98,0.00,,,0.10,,2013-05-12 07:32:00,
2013-05-12 03:42:00,59.0,58.0,29.61,SW,227,0.0,0.0,98,0.00,,,0.10,,2013-05-12 07:42:00,
2013-05-12 03:52:00,59.0,58.0,29.62,SW,227,0.0,0.0,98,0.00,,,0.10,,2013-05-12 07:52:00,
2013-05-12 04:02:00,59.0,58.0,29.62,SW,227,0.0,0.0,98,0.00,,,0.10,,2013-05-12 08:02:00,
2013-05-12 04:11:00,59.0,58.0,29.62,SW,227,0.0,0.0,98,0.00,,,0.10,,2013-05-12 08:11:00,
2013-05-12 04:21:00,59.0,58.0,29.59,SSW,196,0.0,0.0,98,0.00,,,0.10,,2013-05-12 08:21:00,
2013-05-12 04:32:00,59.0,58.0,29.59,SSW,196,0.0,0.0,98,0.00,,,0.10,,2013-05-12 08:32:00,
2013-05-12 04:42:00,59.0,58.0,29.59,SSW,196,0.0,0.0,98,0.00,,,0.10,,2013-05-12 08:42:00,
2013-05-12 04:53:00,59.0,58.0,29.59,SSW,196,0.0,0.0,98,0.00,,,0.10,,2013-05-12 08:53:00,
2013-05-12 05:01:00,59.0,58.0,29.59,SSW,196,0.0,0.0,98,0.00,,,0.10,,2013-05-12 09:01:00,
2013-05-12 05:11:00,59.0,58.0,29.59,SSW,196,0.0,0.0,98,0.00,,,0.10,,2013-05-12 09:11:00,
2013-05-12 05:21:00,58.0,57.0,29.59,SSW,196,0.0,0.0,98,0.00,,,0.10,,2013-05-12 09:21:00,
2013-05-12 05:33:00,58.0,57.0,29.59,SSW,196,0.0,0.0,98,0.00,,,0.10,,2013-05-12 09:33:00,
2013-05-12 05:43:00,58.0,57.0,29.59,SSW,196,0.0,0.0,98,0.00,,,0.10,,2013-05-12 09:43:00,
2013-05-12 05:53:00,58.0,57.0,29.60,SSW,196,0.0,0.0,98,0.00,,,0.10,,2013-05-12 09:53:00,
2013-05-12 06:03:00,58.0,57.0,29.60,SSW,196,0.0,0.0,98,0.00,,,0.10,,2013-05-12 10:03:00,
2013-05-12 06:12:00,58.0,57.0,29.60,SSW,196,0.0,0.0,98,0.00,,,0.10,,2013-05-12 10:12:00,
2013-05-12 06:23:00,59.0,59.0,29.60,SSW,196,0.0,0.0,99,0.00,,,0.10,,2013-05-12 10:23:00,
2013-05-12 06:33:00,59.0,59.0,29.60,SSW,196,0.0,0.0,99,0.00,,,0.10,,2013-05-12 10:33:00,
2013-05-12 06:42:00,59.0,59.0,29.60,SSW,196,0.0,0.0,99,0.00,,,0.10,,2013-05-12 10:42:00,
2013-05-12 06:52:00,59.0,59.0,29.61,SSW,196,0.0,0.0,99,0.01,,,0.11,,2013-05-12 10:52:00,
2013-05-12 07:02:00,59.0,59.0,29.61,SSW,196,0.0,0.0,99,0.01,,,0.11,,2013-05-12 11:02:00,
2013-05-12 07:12:00,59.0,59.0,29.61,SSW,196,0.0,0.0,99,0.01,,,0.11,,2013-05-12 11:12:00,
2013-05-12 07:22:00,59.0,59.0,29.60,SSW,196,0.0,0.0,99,0.01,,,0.11,,2013-05-12 11:22:00,
2013-05-12 07:32:00,59.0,59.0,29.60,SSW,196,0.0,0.0,99,0.01,,,0.11,,2013-05-12 11:32:00,
2013-05-12 07:42:00,59.0,59.0,29.60,SSW,196,0.0,0.0,99,0.01,,,0.11,,2013-05-12 11:42:00,
2013-05-12 07:52:00,59.0,59.0,29.58,SSW,196,0.0,0.0,99,0.01,,,0.08,,2013-05-12 11:52:00,
2013-05-12 08:02:00,59.0,59.0,29.58,SSW,196,0.0,0.0,99,0.01,,,0.08,,2013-05-12 12:02:00,
2013-05-12 08:11:00,59.0,59.0,29.58,SSW,196,0.0,0.0,99,0.01,,,0.08,,2013-05-12 12:11:00,
2013-05-12 08:22:00,60.0,60.0,29.60,SSW,196,0.0,0.0,99,0.02,,,0.09,,2013-05-12 12:22:00,
2013-05-12 08:32:00,60.0,60.0,29.60,SSW,196,0.0,0.0,99,0.02,,,0.09,,2013-05-12 12:32:00,
2013-05-12 08:42:00,60.0,60.0,29.60,SSW,196,0.0,0.0,99,0.02,,,0.09,,2013-05-12 12:42:00,
2013-05-12 08:52:00,60.0,60.0,29.59,SSW,196,0.0,1.0,99,0.03,,,0.09,,2013-05-12 12:52:00,
2013-05-12 09:02:00,60.0,60.0,29.59,SSW,196,0.0,1.0,99,0.03,,,0.09,,2013-05-12 13:02:00,
2013-05-12 09:11:00,60.0,60.0,29.59,SSW,196,0.0,1.0,99,0.03,,,0.09,,2013-05-12 13:11:00,
2013-05-12 09:21:00,60.0,60.0,29.58,SSW,196,0.0,0.0,99,0.03,,,0.10,,2013-05-12 13:21:00,
2013-05-12 09:32:00,60.0,60.0,29.58,SSW,196,0.0,0.0,99,0.03,,,0.10,,2013-05-12 13:32:00,
2013-05-12 09:42:00,60.0,60.0,29.58,SSW,196,0.0,0.0,99,0.03,,,0.10,,2013-05-12 13:42:00,
2013-05-12 09:52:00,60.0,60.0,29.57,SSW,196,0.0,0.0,99,0.01,,,0.10,,2013-05-12 13:52:00,
2013-05-12 10:01:00,60.0,60.0,29.57,SSW,196,0.0,0.0,99,0.01,,,0.10,,2013-05-12 14:01:00,
2013-05-12 10:11:00,60.0,60.0,29.57,SSW,196,0.0,0.0,99,0.01,,,0.10,,2013-05-12 14:11:00,
2013-05-12 10:21:00,60.0,60.0,29.57,SE,132,0.0,1.0,99,0.01,,,0.11,,2013-05-12 14:21:00,
2013-05-12 10:32:00,60.0,60.0,29.57,SE,132,0.0,1.0,99,0.01,,,0.11,,2013-05-12 14:32:00,
2013-05-12 10:42:00,61.0,60.0,29.57,SE,132,0.0,0.0,98,0.01,,,0.11,,2013-05-12 14:42:00,
2013-05-12 10:52:00,61.0,60.0,29.57,SE,132,0.0,0.0,98,0.01,,,0.11,,2013-05-12 14:52:00,
2013-05-12 11:01:00,61.0,60.0,29.57,SE,132,0.0,0.0,98,0.01,,,0.11,,2013-05-12 15:01:00,
2013-05-12 11:11:00,61.0,60.0,29.57,SE,132,0.0,0.0,98,0.01,,,0.11,,2013-05-12 15:11:00,
2013-05-12 11:21:00,59.0,58.0,29.57,SE,132,0.0,0.0,97,0.00,,,0.11,,2013-05-12 15:21:00,
2013-05-12 11:34:00,59.0,58.0,29.57,SE,132,0.0,0.0,97,0.00,,,0.11,,2013-05-12 15:34:00,
2013-05-12 11:42:00,59.0,58.0,29.57,SE,132,0.0,0.0,97,0.00,,,0.11,,2013-05-12 15:42:00,
2013-05-12 11:53:00,59.0,58.0,29.56,SE,132,0.0,0.0,97,0.00,,,0.11,,2013-05-12 15:53:00,
2013-05-12 12:02:00,59.0,58.0,29.56,SE,132,0.0,0.0,97,0.00,,,0.11,,2013-05-12 16:02:00,
2013-05-12 12:13:00,59.0,58.0,29.56,SE,132,0.0,0.0,97,0.00,,,0.11,,2013-05-12 16:13:00,
2013-05-12 12:23:00,59.0,58.0,29.55,SE,132,0.0,0.0,95,0.00,,,0.11,,2013-05-12 16:23:00,
2013-05-12 12:33:00,59.0,58.0,29.55,SE,132,0.0,0.0,95,0.00,,,0.11,,2013-05-12 16:33:00,
2013-05-12 12:42:00,59.0,58.0,29.55,SE,132,0.0,0.0,95,0.00,,,0.11,,2013-05-12 16:42:00,
2013-05-12 12:53:00,61.0,57.0,29.56,South,169,0.0,1.0,87,0.00,,,0.11,,2013-05-12 16:53:00,
2013-05-12 13:02:00,61.0,57.0,29.56,South,169,0.0,1.0,87,0.00,,,0.11,,2013-05-12 17:02:00,
2013-05-12 13:12:00,61.0,57.0,29.56,South,169,0.0,1.0,87,0.00,,,0.11,,2013-05-12 17:12:00,
2013-05-12 13:22:00,64.0,58.0,29.54,South,178,0.0,4.0,81,0.00,,,0.11,,2013-05-12 17:22:00,
2013-05-12 13:32:00,64.0,58.0,29.54,South,178,0.0,4.0,81,0.00,,,0.11,,2013-05-12 17:32:00,
2013-05-12 13:42:00,64.0,58.0,29.54,South,178,0.0,4.0,81,0.00,,,0.11,,2013-05-12 17:42:00,
2013-05-12 13:53:00,67.0,54.0,29.55,SE,139,0.0,2.0,64,0.00,,,0.11,,2013-05-12 17:53:00,
2013-05-12 14:01:00,67.0,54.0,29.55,SE,139,0.0,2.0,64,0.00,,,0.11,,2013-05-12 18:01:00,
2013-05-12 14:12:00,67.0,54.0,29.55,SE,139,0.0,2.0,64,0.00,,,0.11,,2013-05-12 18:12:00,
2013-05-12 14:22:00,68.0,55.0,29.54,SE,143,0.0,3.0,63,0.00,,,0.11,,2013-05-12 18:22:00,
2013-05-12 14:32:00,68.0,55.0,29.54,SE,143,0.0,3.0,63,0.00,,,0.11,,2013-05-12 18:32:00,
2013-05-12 14:42:00,68.0,55.0,29.54,SE,143,0.0,3.0,63,0.00,,,0.11,,2013-05-12 18:42:00,
2013-05-12 14:52:00,69.0,54.0,29.53,SSW,198,1.0,2.0,58,0.00,,,0.11,,2013-05-12 18:52:00,
2013-05-12 15:01:00,69.0,54.0,29.53,SSW,198,1.0,2.0,58,0.00,,,0.11,,2013-05-12 19:01:00,
2013-05-12 15:11:00,69.0,54.0,29.53,SSW,198,1.0,2.0,58,0.00,,,0.11,,2013-05-12 19:11:00,
2013-05-12 15:22:00,70.0,54.0,29.52,NE,37,0.0,4.0,57,0.00,,,0.11,,2013-05-12 19:22:00,
2013-05-12 15:32:00,70.0,54.0,29.52,NE,37,0.0,4.0,57,0.00,,,0.11,,2013-05-12 19:32:00,
2013-05-12 15:42:00,70.0,54.0,29.52,SE,126,0.0,5.0,56,0.00,,,0.11,,2013-05-12 19:42:00,
2013-05-12 15:52:00,70.0,54.0,29.52,SE,126,0.0,5.0,56,0.00,,,0.11,,2013-05-12 19:52:00,
2013-05-12 16:02:00,70.0,54.0,29.52,SE,126,0.0,5.0,56,0.00,,,0.11,,2013-05-12 20:02:00,
2013-05-12 16:11:00,70.0,54.0,29.52,SE,126,0.0,5.0,56,0.00,,,0.11,,2013-05-12 20:11:00,
2013-05-12 16:22:00,67.0,51.0,29.52,SE,134,1.0,4.0,56,0.00,,,0.11,,2013-05-12 20:22:00,
2013-05-12 16:32:00,67.0,51.0,29.52,SE,134,1.0,4.0,56,0.00,,,0.11,,2013-05-12 20:32:00,
2013-05-12 16:42:00,67.0,51.0,29.52,SE,134,1.0,4.0,56,0.00,,,0.11,,2013-05-12 20:42:00,
2013-05-12 16:52:00,70.0,52.0,29.52,SSE,153,0.0,2.0,53,0.00,,,0.11,,2013-05-12 20:52:00,
2013-05-12 17:01:00,70.0,52.0,29.52,SSE,153,0.0,2.0,53,0.00,,,0.11,,2013-05-12 21:01:00,
2013-05-12 17:11:00,70.0,52.0,29.52,SSE,153,0.0,2.0,53,0.00,,,0.11,,2013-05-12 21:11:00,
2013-05-12 17:21:00,68.0,52.0,29.52,SE,129,0.0,4.0,57,0.00,,,0.11,,2013-05-12 21:21:00,
2013-05-12 17:33:00,68.0,52.0,29.52,SE,129,0.0,4.0,57,0.00,,,0.11,,2013-05-12 21:33:00,
2013-05-12 17:42:00,68.0,52.0,29.52,SE,129,0.0,4.0,57,0.00,,,0.11,,2013-05-12 21:42:00,
2013-05-12 17:53:00,67.0,50.0,29.53,South,170,0.0,4.0,55,0.00,,,0.11,,2013-05-12 21:53:00,
2013-05-12 18:02:00,67.0,50.0,29.53,South,170,0.0,4.0,55,0.00,,,0.11,,2013-05-12 22:02:00,
2013-05-12 18:12:00,67.0,50.0,29.53,South,170,0.0,4.0,55,0.00,,,0.11,,2013-05-12 22:12:00,
2013-05-12 18:23:00,63.0,49.0,29.58,WSW,241,0.0,5.0,60,0.00,,,0.11,,2013-05-12 22:23:00,
2013-05-12 18:33:00,63.0,49.0,29.58,WSW,241,0.0,5.0,60,0.00,,,0.11,,2013-05-12 22:33:00,
2013-05-12 18:42:00,63.0,49.0,29.58,WSW,241,0.0,5.0,60,0.00,,,0.11,,2013-05-12 22:42:00,
2013-05-12 18:52:00,60.0,47.0,29.59,ESE,115,0.0,1.0,62,0.00,,,0.10,,2013-05-12 22:52:00,
2013-05-12 19:02:00,60.0,47.0,29.59,ESE,115,0.0,1.0,62,0.00,,,0.10,,2013-05-12 23:02:00,
2013-05-12 19:12:00,60.0,47.0,29.59,ESE,115,0.0,1.0,62,0.00,,,0.10,,2013-05-12 23:12:00,
2013-05-12 19:22:00,58.0,41.0,29.61,ESE,116,0.0,6.0,54,0.00,,,0.10,,2013-05-12 23:22:00,
2013-05-12 19:32:00,58.0,41.0,29.61,ESE,116,0.0,6.0,54,0.00,,,0.10,,2013-05-12 23:32:00,
2013-05-12 19:42:00,58.0,41.0,29.61,ESE,116,0.0,6.0,54,0.00,,,0.10,,2013-05-12 23:42:00,
2013-05-12 19:52:00,57.0,42.0,29.63,SSE,153,0.0,1.0,57,0.00,,,0.08,,2013-05-12 23:52:00,
2013-05-12 20:01:00,57.0,42.0,29.63,SSE,153,0.0,1.0,57,0.00,,,0.08,,2013-05-13 00:01:00,
2013-05-12 20:11:00,57.0,42.0,29.63,SSE,153,0.0,1.0,57,0.00,,,0.08,,2013-05-13 00:11:00,
2013-05-12 20:22:00,55.0,39.0,29.65,SSE,151,0.0,0.0,55,0.00,,,0.08,,2013-05-13 00:22:00,
2013-05-12 20:32:00,55.0,39.0,29.65,SSE,151,0.0,0.0,55,0.00,,,0.08,,2013-05-13 00:32:00,
2013-05-12 20:42:00,55.0,39.0,29.65,SSE,151,0.0,0.0,55,0.00,,,0.08,,2013-05-13 00:42:00,
2013-05-12 20:52:00,53.0,40.0,29.66,ESE,119,0.0,1.0,62,0.00,,,0.07,,2013-05-13 00:52:00,
2013-05-12 21:01:00,53.0,40.0,29.66,ESE,119,0.0,1.0,62,0.00,,,0.07,,2013-05-13 01:01:00,
2013-05-12 21:11:00,53.0,40.0,29.66,ESE,119,0.0,1.0,62,0.00,,,0.07,,2013-05-13 01:11:00,
2013-05-12 21:22:00,52.0,35.0,29.67,SSE,165,0.0,0.0,53,0.00,,,0.07,,2013-05-13 01:22:00,
2013-05-12 21:32:00,52.0,35.0,29.67,SSE,165,0.0,0.0,53,0.00,,,0.07,,2013-05-13 01:32:00,
2013-05-12 21:42:00,52.0,35.0,29.67,SSE,165,0.0,0.0,53,0.00,,,0.07,,2013-05-13 01:42:00,
2013-05-12 21:52:00,51.0,35.0,29.69,SSW,196,0.0,0.0,55,0.00,,,0.07,,2013-05-13 01:52:00,
2013-05-12 22:02:00,51.0,35.0,29.69,SSW,196,0.0,0.0,55,0.00,,,0.07,,2013-05-13 02:02:00,
2013-05-12 22:11:00,51.0,35.0,29.69,SSW,196,0.0,0.0,55,0.00,,,0.07,,2013-05-13 02:11:00,
2013-05-12 22:21:00,49.0,35.0,29.70,SSW,196,0.0,0.0,59,0.00,,,0.07,,2013-05-13 02:21:00,
2013-05-12 22:32:00,49.0,35.0,29.70,SSW,196,0.0,0.0,59,0.00,,,0.07,,2013-05-13 02:32:00,
2013-05-12 22:42:00,49.0,35.0,29.70,SSW,196,0.0,0.0,59,0.00,,,0.07,,2013-05-13 02:42:00,
2013-05-12 22:52:00,48.0,36.0,29.71,SSW,196,0.0,0.0,64,0.00,,,0.07,,2013-05-13 02:52:00,
2013-05-12 23:02:00,48.0,36.0,29.71,SSW,196,0.0,0.0,64,0.00,,,0.07,,2013-05-13 03:02:00,
2013-05-12 23:11:00,48.0,36.0,29.71,SSW,196,0.0,0.0,64,0.00,,,0.07,,2013-05-13 03:11:00,
2013-05-12 23:21:00,47.0,33.0,29.72,SSW,196,0.0,0.0,57,0.00,,,0.07,,2013-05-13 03:21:00,
2013-05-12 23:32:00,47.0,33.0,29.72,SSW,196,0.0,0.0,57,0.00,,,0.07,,2013-05-13 03:32:00,
2013-05-12 23:42:00,47.0,33.0,29.72,SSW,196,0.0,0.0,57,0.00,,,0.07,,2013-05-13 03:42:00,
2013-05-12 23:53:00,47.0,33.0,29.73,SSW,196,0.0,0.0,59,0.00,,,0.07,,2013-05-13 03:53:00,